Blue Oak Ranch Reserve, California Weather observations

Data are for 10 minute period ending at time listed.
 Day   Time   Solar   Ave.   Ave.  Ave.  Vector  Max.   Baro.   Total    
  of    of     Rad.   Air    Rel.  Wind   Wind   Wind  Press.  Precip.   
Year   Day            Temp.  Hum.  Speed  Dir.   Gust                    
2016   (PST)  Kw/m2    F      %     mph   deg.    mph    mb.     in.     
-------------------------------------------------------------------------
 178   11:00   0.89   85.5    33    4.7   245     7.8   948.8    0.00 
 178   11:10   0.89   85.3    34    6.5   239     9.9   948.9    0.00 
 178   11:20   0.91   85.5    34    5.3   247    10.3   949.0    0.00 
 178   11:30   0.92   85.5    34    5.7   236    10.5   949.0    0.00 
 178   11:40   0.92   84.8    35    6.1   251    10.2   949.0    0.00 
 178   11:50   0.92   84.8    34    7.3   230    11.1   949.1    0.00 
 178   12:00   0.92   84.7    33    7.6   229    12.2   949.1    0.00 
 178   12:10   0.92   85.3    32    6.8   234    11.8   949.1    0.00 
 178   12:20   0.92   85.8    30    6.4   239    11.9   949.1    0.00 
 178   12:30   0.92   86.0    29    7.0   233    11.8   949.1    0.00 
 178   12:40   0.92   86.7    27    6.3   231    12.4   949.1    0.00 
 178   12:50   0.91   87.0    26    7.9   228    12.7   949.1    0.00 
 178   13:00   0.88   86.9    26    8.3   235    13.0   949.1    0.00 
 178   13:10   0.90   87.8    25    6.9   252    12.3   949.0    0.00 
 178   13:20   0.89   89.5    23    6.0   238     9.9   948.8    0.00 
 178   13:30   0.88   89.2    23    7.1   255    13.3   948.8    0.00 
 178   13:40   0.87   89.5    24    7.6   240    14.1   948.8    0.00 
 178   13:50   0.86   89.2    25    8.2   236    13.0   948.8    0.00 
 178   14:00   0.85   90.1    25    6.7   243    12.2   948.7    0.00 
 178   14:10   0.83   90.5    24    7.7   250    13.0   948.7    0.00 
 178   14:20   0.82   90.4    24    7.6   238    14.9   948.6    0.00 
 178   14:30   0.80   90.8    23    7.2   242    11.0   948.6    0.00 
 178   14:40   0.78   91.6    24    7.2   267    12.5   948.6    0.00 
 178   14:50   0.76   90.8    25    7.9   260    12.7   948.6    0.00 
 178   15:00   0.74   89.9    26    7.9   256    13.7   948.6    0.00 
 178   15:10   0.72   90.2    26    6.8   254    13.2   948.6    0.00 
 178   15:20   0.69   89.4    27    7.7   256    12.8   948.6    0.00 
 178   15:30   0.67   89.5    27    7.9   262    12.3   948.5    0.00 
 178   15:40   0.64   89.7    26    6.7   264    12.0   948.5    0.00 
 178   15:50   0.62   91.0    23    6.7   262    10.9   948.6    0.00 
 178   16:00   0.59   92.1    21    7.1   273    11.5   948.6    0.00 
 178   16:10   0.56   92.2    21    7.2   283    11.8   948.6    0.00 
 178   16:20   0.54   92.1    19    6.6   281    11.6   948.6    0.00 
 178   16:30   0.51   91.4    20    7.0   268    12.4   948.5    0.00 
 178   16:40   0.48   90.5    18    8.1   294    13.2   948.5    0.00 
 178   16:50   0.45   89.4    17    8.8   306    13.4   948.5    0.00 
 178   17:00   0.42   88.5    17    8.5   301    14.0   948.5    0.00 
 178   17:10   0.39   89.1    17    7.3   290    10.5   948.5    0.00 
 178   17:20   0.36   89.2    17    6.8   290     9.6   948.5    0.00 
 178   17:30   0.32   89.2    17    6.5   283     9.0   948.6    0.00 
 178   17:40   0.29   89.5    18    5.6   272     9.1   948.7    0.00 
 178   17:50   0.26   88.1    20    4.3   250     8.1   948.8    0.00 
 178   18:00   0.23   85.8    22    4.7   249     8.0   948.9    0.00 
 178   18:10   0.20   85.6    22    3.6   254     7.2   949.0    0.00 
 178   18:20   0.17   85.4    23    2.8   280     5.5   949.1    0.00 
 178   18:30   0.14   85.8    21    5.0   287     7.0   949.1    0.00 
 178   18:40   0.12   85.5    22    3.3   285     5.6   949.2    0.00 
 178   18:50   0.09   82.9    24    1.4   291     3.6   949.3    0.00 
 178   19:00   0.07   79.8    27    1.0   237     2.5   949.3    0.00 
 178   19:10   0.05   78.8    28    1.2   256     2.5   949.4    0.00 
 178   19:20   0.02   75.9    31    0.4   236     2.0   949.5    0.00 
 178   19:30   0.01   72.6    34    1.1   253     1.7   949.6    0.00 
 178   19:40   0.01   70.2    37    1.1    56     2.5   949.6    0.00 
 178   19:50   0.00   68.4    39    1.5    43     2.3   949.5    0.00 
 178   20:00   0.00   67.3    41    0.5   286     1.6   949.4    0.00 
 178   20:10   0.00   66.7    42    0.7   305     1.2   949.4    0.00 
 178   20:20   0.00   65.8    42    0.1   320     0.9   949.2    0.00 
 178   20:30   0.00   65.4    40    0.1    44     1.0   949.1    0.00 
 178   20:40   0.00   65.4    39    0.6    53     1.9   949.1    0.00 
 178   20:50   0.00   64.8    41    0.6   309     1.5   949.1    0.00 
 178   21:00   0.00   64.8    40    0.1   301     1.2   949.1    0.00 
 178   21:10   0.00   64.5    41    0.7   298     1.8   949.0    0.00 
 178   21:20   0.00   64.1    41    0.8   313     2.8   949.1    0.00 
 178   21:30   0.00   64.0    41    0.6   116     2.0   949.0    0.00 
 178   21:40   0.00   64.2    41    0.7   293     2.8   949.1    0.00 
 178   21:50   0.00   64.1    41    1.1    59     2.3   949.1    0.00 
 178   22:00   0.00   64.7    41    0.7   349     2.6   949.1    0.00 
 178   22:10   0.00   64.4    42    0.5   335     1.9   949.0    0.00 
 178   22:20   0.00   64.0    43    0.8   300     2.9   948.9    0.00 
 178   22:30   0.00   64.3    42    1.2   311     3.4   948.9    0.00 
 178   22:40   0.00   64.2    43    0.5   114     2.6   948.9    0.00 
 178   22:50   0.00   65.0    42    0.5   324     3.4   948.9    0.00 
 178   23:00   0.00   67.0    39    3.9   328     9.5   948.9    0.00 
 178   23:10   0.00   67.3    38    1.7   325     7.2   948.8    0.00 
 178   23:20   0.00   66.6    39    1.5   300     4.4   948.8    0.00 
 178   23:30   0.00   65.8    39    0.8   292     2.6   948.8    0.00 
 178   23:40   0.00   65.1    40    1.5   313     3.8   948.8    0.00 
 178   23:50   0.00   64.6    42    3.6   311     5.8   948.7    0.00 
 179    0:00   0.00   64.0    42    0.8   306     2.3   948.7    0.00 
 179    0:10   0.00   64.8    41    2.1   289     3.5   948.8    0.00 
 179    0:20   0.00   64.6    41    1.0    62     2.5   948.8    0.00 
 179    0:30   0.00   64.3    42    0.4   231     1.5   948.8    0.00 
 179    0:40   0.00   63.8    43    0.1    69     0.8   948.9    0.00 
 179    0:50   0.00   63.4    44    0.3    75     1.8   948.9    0.00 
 179    1:00   0.00   63.4    44    2.2   357     6.8   948.8    0.00 
 179    1:10   0.00   70.5    35    4.8   338    10.4   948.7    0.00 
 179    1:20   0.00   75.7    30    3.5   341     7.4   948.8    0.00 
 179    1:30   0.00   77.0    28    5.4   330    11.0   948.9    0.00 
 179    1:40   0.00   76.0    29    2.8   325     5.0   949.1    0.00 
 179    1:50   0.00   74.6    30    4.2   341    11.0   949.3    0.00 
 179    2:00   0.00   75.9    28    4.5   336     7.7   949.2    0.00 
 179    2:10   0.00   76.4    27    5.4   334     8.3   949.2    0.00 
 179    2:20   0.00   73.0    32    4.7   325     7.1   949.3    0.00 
 179    2:30   0.00   69.1    38    2.1   332     5.0   949.3    0.00 
 179    2:40   0.00   66.0    41    0.4   267     1.5   949.1    0.00 
 179    2:50   0.00   64.7    43    0.8   270     3.1   948.9    0.00 
 179    3:00   0.00   64.3    42    0.9    50     2.4   948.9    0.00 
 179    3:10   0.00   62.8    45    0.0    59     1.2   948.8    0.00 
 179    3:20   0.00   62.1    45    0.2    33     1.0   948.8    0.00 
 179    3:30   0.00   61.7    45    0.3    27     1.6   948.8    0.00 
 179    3:40   0.00   61.7    45    0.4   360     1.5   948.8    0.00 
 179    3:50   0.00   61.5    45    0.0   155     0.5   948.9    0.00 
 179    4:00   0.00   61.6    45    0.1    51     1.4   949.0    0.00 
 179    4:10   0.00   61.0    47    0.6   315     1.8   949.1    0.00 
 179    4:20   0.00   60.8    47    0.4   329     1.3   949.1    0.00 
 179    4:30   0.00   60.4    47    0.1   282     1.1   949.1    0.00 
 179    4:40   0.00   60.4    47    0.3   135     1.5   949.1    0.00 
 179    4:50   0.01   60.2    47    0.0     0     0.0   949.1    0.00 
 179    5:00   0.01   60.3    47    0.4    79     1.3   949.1    0.00 
 179    5:10   0.01   59.5    48    0.9    40     2.0   949.1    0.00 
 179    5:20   0.01   59.8    47    0.5   300     2.1   949.1    0.00 
 179    5:30   0.01   60.1    47    1.1    48     2.9   949.1    0.00 
 179    5:40   0.02   60.2    48    1.4    58     3.0   949.2    0.00 
 179    5:50   0.03   60.4    48    0.0     0     0.0   949.2    0.00 
 179    6:00   0.03   61.6    48    0.1   310     1.0   949.1    0.00 
 179    6:10   0.10   64.0    44    1.2   301     2.4   949.1    0.00 
 179    6:20   0.20   64.8    47    1.3    76     2.6   949.2    0.00 
 179    6:30   0.23   68.3    44    1.1    67     2.8   949.1    0.00 
 179    6:40   0.26   73.5    39    0.2   277     0.9   949.2    0.00 
 179    6:50   0.29   76.6    35    0.2   114     1.4   949.4    0.00 
 179    7:00   0.32   78.4    33    1.1    88     1.9   949.7    0.00 
 179    7:10   0.36   80.9    29    0.8    88     2.0   949.8    0.00 
 179    7:20   0.39   82.3    29    0.5   110     1.4   950.0    0.00 
 179    7:30   0.42   84.1    26    0.4   287     2.6   950.1    0.00 
 179    7:40   0.45   85.3    26    2.8   265     6.2   950.1    0.00 
 179    7:50   0.48   84.9    27    4.2   276     6.0   950.0    0.00 
 179    8:00   0.52   85.0    27    3.6   283     5.8   950.0    0.00 
 179    8:10   0.55   85.7    26    5.4   283     8.7   949.8    0.00 
 179    8:20   0.58   85.1    26    6.5   285     8.8   949.8    0.00 
 179    8:30   0.61   85.6    26    6.8   284     9.6   949.8    0.00 
 179    8:40   0.64   86.0    26    7.2   280     9.5   949.8    0.00 
 179    8:50   0.66   86.7    26    6.7   283     9.2   949.7    0.00 
 179    9:00   0.69   87.9    26    7.2   282    10.2   949.6    0.00 
 179    9:10   0.72   88.2    25    8.7   286    11.4   949.5    0.00 
 179    9:20   0.74   88.7    26    6.9   268    10.3   949.4    0.00 
 179    9:30   0.77   85.9    33    6.1   253    10.4   949.6    0.00 
 179    9:40   0.79   88.4    29    5.9   278     9.6   949.6    0.00 
 179    9:50   0.81   89.1    29    6.2   263    11.0   949.6    0.00 
 179   10:00   0.83   87.5    32    5.5   242     8.4   949.6    0.00 
 179   10:10   0.85   86.3    34    5.3   247     9.2   949.7    0.00 
 179   10:20   0.87   85.8    34    5.4   243     7.8   949.8    0.00 
 179   10:30   0.88   85.8    34    7.4   254    10.4   949.7    0.00 
 179   10:40   0.90   85.7    34    6.7   257    10.3   949.8    0.00 
 179   10:50   0.91   85.9    33    8.4   248    11.7   949.8    0.00 

Return to Blue Oak Ranch Reserve graphs page.


Western Regional Climate Center,wrcc@dri.edu